Time;durP1;ratioP1;P1;durP2;ratioP2;P2;SDS_P1;SDS_P2;PMS_P1;PMS_P2;Temp;Humidity;BMP_temperature;BMP_pressure;BME280_temperature;BME280_humidity;BME280_pressure;Samples;Min_cycle;Max_cycle;Signal;HPM_P1;HPM_P2
2023/05/08 00:00:30;;;;;;;;;;;;;;;;;;4958900;28;19922;-91
2023/05/08 00:02:55;;;;;;;;;;;;;;;;;;4958850;28;19922;-92
2023/05/08 00:05:21;;;;;;;;;;;;;;;;;;4958927;28;19949;-91
2023/05/08 00:07:49;;;;;;;;;;;;;;;;;;4958835;28;19977;-91
2023/05/08 00:10:15;;;;;;;;;;;;;;;;;;4958174;28;19922;-92
2023/05/08 00:12:41;;;;;;;;;;;;;;;;;;4974740;28;20337;-91
2023/05/08 00:15:07;;;;;;;;;;;;;;;;;;4958273;28;19933;-92
2023/05/08 00:17:33;;;;;;;;;;;;;;;;;;4958026;28;20390;-91
2023/05/08 00:19:59;;;;;;;;;;;;;;;;;;4958294;28;19977;-92
2023/05/08 00:22:25;;;;;;;;;;;;;;;;;;4958290;28;19926;-94
2023/05/08 00:24:51;;;;;;;;;;;;;;;;;;4957208;28;19923;-92
2023/05/08 00:27:16;;;;;;;;;;;;;;;;;;4959516;28;19922;-90
2023/05/08 00:29:42;;;;;;;;;;;;;;;;;;4958147;28;19989;-90
2023/05/08 00:32:08;;;;;;;;;;;;;;;;;;4957931;28;19980;-91
2023/05/08 00:34:35;;;;;;;;;;;;;;;;;;4958124;28;19922;-91
2023/05/08 00:37:02;;;;;;;;;;;;;;;;;;4974206;28;19922;-90
2023/05/08 00:39:28;;;;;;;;;;;;;;;;;;4957328;28;19973;-91
2023/05/08 00:41:54;;;;;;;;;;;;;;;;;;4958223;28;20020;-91
2023/05/08 00:44:20;;;;;;;;;;;;;;;;;;4962009;28;19921;-92
2023/05/08 00:46:46;;;;;;;;;;;;;;;;;;4965678;28;19922;-91
2023/05/08 00:49:13;;;;;;;;;;;;;;;;;;4957141;28;20433;-92
2023/05/08 00:51:39;;;;;;;;;;;;;;;;;;4973980;28;19961;-91
2023/05/08 00:54:05;;;;;;;;;;;;;;;;;;4957502;28;20363;-92
2023/05/08 00:56:31;;;;;;;;;;;;;;;;;;4957618;28;19972;-92
2023/05/08 00:58:57;;;;;;;;;;;;;;;;;;4957391;28;19926;-92
2023/05/08 01:01:22;;;;;;;;;;;;;;;;;;4957086;28;20406;-91
2023/05/08 01:03:48;;;;;;;;;;;;;;;;;;4957776;28;19949;-91
2023/05/08 01:06:14;;;;;;;;;;;;;;;;;;4957624;28;20298;-92
2023/05/08 01:08:40;;;;;;;;;;;;;;;;;;4973375;28;20065;-92
2023/05/08 01:11:06;;;;;;;;;;;;;;;;;;4957237;28;19972;-92
2023/05/08 01:13:32;;;;;;;;;;;;;;;;;;4957562;28;19973;-92
2023/05/08 01:15:58;;;;;;;;;;;;;;;;;;4957274;28;20280;-92
2023/05/08 01:18:24;;;;;;;;;;;;;;;;;;4957176;28;19922;-93
2023/05/08 01:20:50;;;;;;;;;;;;;;;;;;4957169;28;20374;-91
2023/05/08 01:23:16;;;;;;;;;;;;;;;;;;4957224;28;19965;-91
2023/05/08 01:25:42;;;;;;;;;;;;;;;;;;4973467;28;20016;-92
2023/05/08 01:28:08;;;;;;;;;;;;;;;;;;4955393;28;19926;-92
2023/05/08 01:30:34;;;;;;;;;;;;;;;;;;4957396;28;19944;-92
2023/05/08 01:33:00;;;;;;;;;;;;;;;;;;4957123;28;19933;-92
2023/05/08 01:35:26;;;;;;;;;;;;;;;;;;4962969;28;20379;-92
2023/05/08 01:37:52;;;;;;;;;;;;;;;;;;4956748;28;20008;-93
2023/05/08 01:40:18;;;;;;;;;;;;;;;;;;4956927;28;19965;-91
2023/05/08 01:42:44;;;;;;;;;;;;;;;;;;4960200;28;19976;-91
2023/05/08 01:45:10;;;;;;;;;;;;;;;;;;4957138;28;19922;-91
2023/05/08 01:47:36;;;;;;;;;;;;;;;;;;4956800;28;19985;-92
2023/05/08 01:50:03;;;;;;;;;;;;;;;;;;4956695;28;19925;-91
2023/05/08 01:52:29;;;;;;;;;;;;;;;;;;4956893;28;19934;-91
2023/05/08 01:54:55;;;;;;;;;;;;;;;;;;4956698;28;19976;-90
2023/05/08 01:57:21;;;;;;;;;;;;;;;;;;4956647;28;20394;-91
2023/05/08 01:59:47;;;;;;;;;;;;;;;;;;4960010;28;19926;-91
2023/05/08 02:02:13;;;;;;;;;;;;;;;;;;4963564;28;19945;-91
2023/05/08 02:04:39;;;;;;;;;;;;;;;;;;4979071;28;20012;-91
2023/05/08 02:07:05;;;;;;;;;;;;;;;;;;4963224;28;19926;-90
2023/05/08 02:09:30;;;;;;;;;;;;;;;;;;4962371;28;19922;-91
2023/05/08 02:11:56;;;;;;;;;;;;;;;;;;4963107;28;19922;-91
2023/05/08 02:14:22;;;;;;;;;;;;;;;;;;4963293;28;19922;-91
2023/05/08 02:16:48;;;;;;;;;;;;;;;;;;4963366;28;20368;-91
2023/05/08 02:19:14;;;;;;;;;;;;;;;;;;4962475;28;19929;-91
2023/05/08 02:21:40;;;;;;;;;;;;;;;;;;4957408;28;19922;-91
2023/05/08 02:24:06;;;;;;;;;;;;;;;;;;4963093;28;19929;-92
2023/05/08 02:26:32;;;;;;;;;;;;;;;;;;4963053;28;19973;-91
2023/05/08 02:28:58;;;;;;;;;;;;;;;;;;4962637;28;19922;-91
2023/05/08 02:31:24;;;;;;;;;;;;;;;;;;4960892;28;19922;-92
2023/05/08 02:33:50;;;;;;;;;;;;;;;;;;4962779;28;19929;-91
2023/05/08 02:36:16;;;;;;;;;;;;;;;;;;4979090;28;20398;-90
2023/05/08 02:38:42;;;;;;;;;;;;;;;;;;4962335;28;20389;-92
2023/05/08 02:41:08;;;;;;;;;;;;;;;;;;4978935;28;20295;-91
2023/05/08 02:43:34;;;;;;;;;;;;;;;;;;4962791;28;19922;-91
2023/05/08 02:46:00;;;;;;;;;;;;;;;;;;4962954;28;20449;-90
2023/05/08 02:48:25;;;;;;;;;;;;;;;;;;4962378;28;19932;-91
2023/05/08 02:50:51;;;;;;;;;;;;;;;;;;4962736;28;19922;-91
2023/05/08 02:53:19;;;;;;;;;;;;;;;;;;4962217;28;21208;-91
2023/05/08 02:55:45;;;;;;;;;;;;;;;;;;4962559;28;20008;-92
2023/05/08 02:58:11;;;;;;;;;;;;;;;;;;4962370;28;20013;-92
2023/05/08 03:00:37;;;;;;;;;;;;;;;;;;4962492;28;19977;-90
2023/05/08 03:03:03;;;;;;;;;;;;;;;;;;4962565;28;19933;-91
2023/05/08 03:05:29;;;;;;;;;;;;;;;;;;4962789;28;19926;-91
2023/05/08 03:07:55;;;;;;;;;;;;;;;;;;4962724;28;19944;-90
2023/05/08 03:10:21;;;;;;;;;;;;;;;;;;4977342;28;19930;-90
2023/05/08 03:12:47;;;;;;;;;;;;;;;;;;4970466;28;20370;-92
2023/05/08 03:15:13;;;;;;;;;;;;;;;;;;4959540;28;19926;-91
2023/05/08 03:17:39;;;;;;;;;;;;;;;;;;4959406;28;19953;-92
2023/05/08 03:20:05;;;;;;;;;;;;;;;;;;4959166;28;19922;-91
2023/05/08 03:22:31;;;;;;;;;;;;;;;;;;4959399;28;20405;-92
2023/05/08 03:24:57;;;;;;;;;;;;;;;;;;4975189;28;19933;-90
2023/05/08 03:27:22;;;;;;;;;;;;;;;;;;4959173;28;19976;-91
2023/05/08 03:29:51;;;;;;;;;;;;;;;;;;4975046;28;20032;-91
2023/05/08 03:32:17;;;;;;;;;;;;;;;;;;4975087;28;19926;-91
2023/05/08 03:34:42;;;;;;;;;;;;;;;;;;4956376;28;19981;-91
2023/05/08 03:37:08;;;;;;;;;;;;;;;;;;4959454;28;19983;-92
2023/05/08 03:39:34;;;;;;;;;;;;;;;;;;4961353;28;20536;-92
2023/05/08 03:42:00;;;;;;;;;;;;;;;;;;4960033;28;19926;-91
2023/05/08 03:44:26;;;;;;;;;;;;;;;;;;4975412;28;20259;-92
2023/05/08 03:46:52;;;;;;;;;;;;;;;;;;4959338;28;19923;-92
2023/05/08 03:49:18;;;;;;;;;;;;;;;;;;4959456;28;20418;-91
2023/05/08 03:51:44;;;;;;;;;;;;;;;;;;4959042;28;19929;-92
2023/05/08 03:54:10;;;;;;;;;;;;;;;;;;4958969;28;20384;-91
2023/05/08 03:56:36;;;;;;;;;;;;;;;;;;4958882;28;19926;-91
2023/05/08 03:59:02;;;;;;;;;;;;;;;;;;4967154;28;19922;-92
2023/05/08 04:01:28;;;;;;;;;;;;;;;;;;4958681;28;19926;-92
2023/05/08 04:03:54;;;;;;;;;;;;;;;;;;4957245;28;19923;-92
2023/05/08 04:06:20;;;;;;;;;;;;;;;;;;4958638;28;19929;-91
2023/05/08 04:08:46;;;;;;;;;;;;;;;;;;4958707;28;19930;-92
2023/05/08 04:11:12;;;;;;;;;;;;;;;;;;4959154;28;19921;-91
2023/05/08 04:13:37;;;;;;;;;;;;;;;;;;4960954;28;19932;-92
2023/05/08 04:16:03;;;;;;;;;;;;;;;;;;4958816;28;19926;-94
2023/05/08 04:18:29;;;;;;;;;;;;;;;;;;4974619;28;20018;-92
2023/05/08 04:20:55;;;;;;;;;;;;;;;;;;4958233;28;19926;-92
2023/05/08 04:23:21;;;;;;;;;;;;;;;;;;4958205;28;19939;-92
2023/05/08 04:25:47;;;;;;;;;;;;;;;;;;4955842;28;19922;-92
2023/05/08 04:28:13;;;;;;;;;;;;;;;;;;4958085;28;19929;-92
2023/05/08 04:30:39;;;;;;;;;;;;;;;;;;4954152;28;20022;-92
2023/05/08 04:33:05;;;;;;;;;;;;;;;;;;4957769;28;20397;-92
2023/05/08 04:35:31;;;;;;;;;;;;;;;;;;4958302;28;20005;-92
2023/05/08 04:37:57;;;;;;;;;;;;;;;;;;4958711;28;19906;-92
2023/05/08 04:40:23;;;;;;;;;;;;;;;;;;4959272;28;19945;-91
2023/05/08 04:42:49;;;;;;;;;;;;;;;;;;4959155;28;19926;-91
2023/05/08 04:45:15;;;;;;;;;;;;;;;;;;4959037;28;19965;-92
2023/05/08 04:47:41;;;;;;;;;;;;;;;;;;4958048;28;19928;-92
2023/05/08 04:50:07;;;;;;;;;;;;;;;;;;4958474;28;19930;-91
2023/05/08 04:52:33;;;;;;;;;;;;;;;;;;4959735;28;19926;-91
2023/05/08 04:55:02;;;;;;;;;;;;;;;;;;4953611;28;20068;-90
2023/05/08 04:57:28;;;;;;;;;;;;;;;;;;4956991;28;19952;-91
2023/05/08 04:59:53;;;;;;;;;;;;;;;;;;4957805;28;20407;-92
2023/05/08 05:02:19;;;;;;;;;;;;;;;;;;4956111;28;19930;-91
2023/05/08 05:04:45;;;;;;;;;;;;;;;;;;4957533;28;19922;-92
2023/05/08 05:07:11;;;;;;;;;;;;;;;;;;4958302;28;20294;-92
2023/05/08 05:09:38;;;;;;;;;;;;;;;;;;4958350;28;19938;-91
2023/05/08 05:12:03;;;;;;;;;;;;;;;;;;4958293;28;19924;-92
2023/05/08 05:14:29;;;;;;;;;;;;;;;;;;4959263;28;20007;-93
2023/05/08 05:16:55;;;;;;;;;;;;;;;;;;4959378;28;19997;-92
2023/05/08 05:19:21;;;;;;;;;;;;;;;;;;4958358;28;19929;-92
2023/05/08 05:21:47;;;;;;;;;;;;;;;;;;4959639;28;19922;-92
2023/05/08 05:24:13;;;;;;;;;;;;;;;;;;4957874;28;19922;-91
2023/05/08 05:26:40;;;;;;;;;;;;;;;;;;4957807;28;19926;-91
2023/05/08 05:29:05;;;;;;;;;;;;;;;;;;4957641;28;19922;-90
2023/05/08 05:31:31;;;;;;;;;;;;;;;;;;4957544;28;19930;-92
2023/05/08 05:33:57;;;;;;;;;;;;;;;;;;4956879;28;19922;-92
2023/05/08 05:36:23;;;;;;;;;;;;;;;;;;4959863;28;19981;-92
2023/05/08 05:38:49;;;;;;;;;;;;;;;;;;4957772;28;19926;-91
2023/05/08 05:41:15;;;;;;;;;;;;;;;;;;4957421;28;19945;-91
2023/05/08 05:43:41;;;;;;;;;;;;;;;;;;4957987;28;19926;-92
2023/05/08 05:46:07;;;;;;;;;;;;;;;;;;4957776;28;19945;-92
2023/05/08 05:48:33;;;;;;;;;;;;;;;;;;4959052;28;19922;-92
2023/05/08 05:50:58;;;;;;;;;;;;;;;;;;4959884;28;19977;-92
2023/05/08 05:53:24;;;;;;;;;;;;;;;;;;4958861;28;19949;-92
2023/05/08 05:55:51;;;;;;;;;;;;;;;;;;4958540;28;20006;-92
2023/05/08 05:58:17;;;;;;;;;;;;;;;;;;4959711;28;19930;-94
2023/05/08 06:00:43;;;;;;;;;;;;;;;;;;4958029;28;20013;-94
2023/05/08 06:03:09;;;;;;;;;;;;;;;;;;4963413;28;19922;-96
2023/05/08 06:05:35;;;;;;;;;;;;;;;;;;4964884;28;20120;-93
2023/05/08 06:08:01;;;;;;;;;;;;;;;;;;4953601;28;19945;-94
2023/05/08 06:10:27;;;;;;;;;;;;;;;;;;4957594;28;19930;-93
2023/05/08 06:12:53;;;;;;;;;;;;;;;;;;4959147;28;19922;-95
2023/05/08 06:15:19;;;;;;;;;;;;;;;;;;4957302;28;19937;-92
2023/05/08 06:17:45;;;;;;;;;;;;;;;;;;4954854;28;19922;-93
2023/05/08 06:20:11;;;;;;;;;;;;;;;;;;4957037;28;19951;-93
2023/05/08 06:22:38;;;;;;;;;;;;;;;;;;4958583;28;19998;-94
2023/05/08 06:25:05;;;;;;;;;;;;;;;;;;4970963;28;20012;-94
2023/05/08 06:27:34;;;;;;;;;;;;;;;;;;4961115;28;19922;-92
2023/05/08 06:30:00;;;;;;;;;;;;;;;;;;4960137;28;19926;-91
2023/05/08 06:32:25;;;;;;;;;;;;;;;;;;4971893;28;19929;-90
2023/05/08 06:34:51;;;;;;;;;;;;;;;;;;4958446;28;19950;-91
2023/05/08 06:37:17;;;;;;;;;;;;;;;;;;4956916;28;19922;-90
2023/05/08 06:39:43;;;;;;;;;;;;;;;;;;4954325;28;19961;-89
2023/05/08 06:42:09;;;;;;;;;;;;;;;;;;4952716;28;19930;-89
2023/05/08 06:44:35;;;;;;;;;;;;;;;;;;4954359;28;19930;-89
2023/05/08 06:47:01;;;;;;;;;;;;;;;;;;4953984;28;20299;-89
2023/05/08 06:49:27;;;;;;;;;;;;;;;;;;4957792;28;19929;-90
2023/05/08 06:51:53;;;;;;;;;;;;;;;;;;4974953;28;19929;-92
2023/05/08 06:54:19;;;;;;;;;;;;;;;;;;4962968;28;19926;-92
2023/05/08 06:56:45;;;;;;;;;;;;;;;;;;4957464;28;19932;-90
2023/05/08 06:59:11;;;;;;;;;;;;;;;;;;4957523;28;19926;-91
2023/05/08 07:01:37;;;;;;;;;;;;;;;;;;4958524;28;19945;-94
2023/05/08 07:04:03;;;;;;;;;;;;;;;;;;4962133;28;19922;-94
2023/05/08 07:06:30;;;;;;;;;;;;;;;;;;4962317;28;19977;-91
2023/05/08 07:08:55;;;;;;;;;;;;;;;;;;4959913;28;19930;-93
2023/05/08 07:11:21;;;;;;;;;;;;;;;;;;4960717;28;19922;-94
2023/05/08 07:13:47;;;;;;;;;;;;;;;;;;4962557;28;19922;-91
2023/05/08 07:16:13;;;;;;;;;;;;;;;;;;4972157;28;19926;-91
2023/05/08 07:18:39;;;;;;;;;;;;;;;;;;4963032;28;19922;-96
2023/05/08 07:21:05;;;;;;;;;;;;;;;;;;4964002;28;19922;-92
2023/05/08 07:23:31;;;;;;;;;;;;;;;;;;4959126;28;19929;-90
2023/05/08 07:25:58;;;;;;;;;;;;;;;;;;4955707;28;19923;-89
2023/05/08 07:28:27;;;;;;;;;;;;;;;;;;4955818;28;19922;-89
2023/05/08 07:30:54;;;;;;;;;;;;;;;;;;4971364;28;20398;-91
2023/05/08 07:33:20;;;;;;;;;;;;;;;;;;4958347;28;20314;-92
2023/05/08 07:35:46;;;;;;;;;;;;;;;;;;4956510;28;19933;-92
2023/05/08 07:38:12;;;;;;;;;;;;;;;;;;4953396;28;19922;-88
2023/05/08 07:40:38;;;;;;;;;;;;;;;;;;4959583;28;19929;-90
2023/05/08 07:43:03;;;;;;;;;;;;;;;;;;4959597;28;19926;-91
2023/05/08 07:45:29;;;;;;;;;;;;;;;;;;4976514;28;20069;-91
2023/05/08 07:47:56;;;;;;;;;;;;;;;;;;4960277;28;19930;-91
2023/05/08 07:50:22;;;;;;;;;;;;;;;;;;4958774;28;20007;-92
2023/05/08 07:52:47;;;;;;;;;;;;;;;;;;4959571;28;19934;-91
2023/05/08 07:55:13;;;;;;;;;;;;;;;;;;4958215;28;19953;-92
2023/05/08 07:57:39;;;;;;;;;;;;;;;;;;4958754;28;19956;-89
2023/05/08 08:00:06;;;;;;;;;;;;;;;;;;4957059;28;19937;-91
2023/05/08 08:02:32;;;;;;;;;;;;;;;;;;4960223;28;19928;-94
2023/05/08 08:04:59;;;;;;;;;;;;;;;;;;4961856;28;20017;-96
2023/05/08 08:07:24;;;;;;;;;;;;;;;;;;4960826;28;19926;-92
2023/05/08 08:09:50;;;;;;;;;;;;;;;;;;4960646;28;19930;-94
2023/05/08 08:12:16;;;;;;;;;;;;;;;;;;4960772;28;19922;-92
2023/05/08 08:14:43;;;;;;;;;;;;;;;;;;4977229;28;19922;-93
2023/05/08 08:17:09;;;;;;;;;;;;;;;;;;4964061;28;19928;-91
2023/05/08 08:19:35;;;;;;;;;;;;;;;;;;4960388;28;19933;-94
2023/05/08 08:22:00;;;;;;;;;;;;;;;;;;4976209;28;19977;-92
2023/05/08 08:24:28;;;;;;;;;;;;;;;;;;4960203;28;20398;-92
2023/05/08 08:26:54;;;;;;;;;;;;;;;;;;4972105;28;20386;-92
2023/05/08 08:29:20;;;;;;;;;;;;;;;;;;4959634;28;19926;-93
2023/05/08 08:31:45;;;;;;;;;;;;;;;;;;4960095;28;19980;-91
2023/05/08 08:34:12;;;;;;;;;;;;;;;;;;4959371;28;20005;-90
2023/05/08 08:36:38;;;;;;;;;;;;;;;;;;4959579;28;19952;-93
2023/05/08 08:39:04;;;;;;;;;;;;;;;;;;4960618;28;19922;-94
2023/05/08 08:41:30;;;;;;;;;;;;;;;;;;4952722;28;19956;-92
2023/05/08 08:43:55;;;;;;;;;;;;;;;;;;4959998;28;20378;-93
2023/05/08 08:46:21;;;;;;;;;;;;;;;;;;4976139;28;19997;-90
2023/05/08 08:48:47;;;;;;;;;;;;;;;;;;4960265;28;19928;-92
2023/05/08 08:51:13;;;;;;;;;;;;;;;;;;4974596;28;20021;-92
2023/05/08 08:53:39;;;;;;;;;;;;;;;;;;4964515;28;19965;-92
2023/05/08 08:56:05;;;;;;;;;;;;;;;;;;4963881;28;20481;-88
2023/05/08 08:58:32;;;;;;;;;;;;;;;;;;4964398;28;19932;-92
2023/05/08 09:00:58;;;;;;;;;;;;;;;;;;4960330;28;19929;-91
2023/05/08 09:03:24;;;;;;;;;;;;;;;;;;4959039;28;19922;-91
2023/05/08 09:05:50;;;;;;;;;;;;;;;;;;4958151;28;19926;-91
2023/05/08 09:08:16;;;;;;;;;;;;;;;;;;4957212;28;20337;-91
2023/05/08 09:10:42;;;;;;;;;;;;;;;;;;4957687;28;19930;-91
2023/05/08 09:13:08;;;;;;;;;;;;;;;;;;4957824;28;20287;-91
2023/05/08 09:15:35;;;;;;;;;;;;;;;;;;4956972;28;19966;-90
2023/05/08 09:18:03;;;;;;;;;;;;;;;;;;4956977;28;19922;-90
2023/05/08 09:20:29;;;;;;;;;;;;;;;;;;4957933;28;19922;-89
2023/05/08 09:22:54;;;;;;;;;;;;;;;;;;4958417;28;19929;-89
2023/05/08 09:25:20;;;;;;;;;;;;;;;;;;4956652;28;19926;-92
2023/05/08 09:27:46;;;;;;;;;;;;;;;;;;4960999;28;19981;-89
2023/05/08 09:30:15;;;;;;;;;;;;;;;;;;4956825;28;20430;-92
2023/05/08 09:32:41;;;;;;;;;;;;;;;;;;4957968;28;20369;-92
2023/05/08 09:35:07;;;;;;;;;;;;;;;;;;4958662;28;19961;-93
2023/05/08 09:37:35;;;;;;;;;;;;;;;;;;4975005;28;19922;-93
2023/05/08 09:40:02;;;;;;;;;;;;;;;;;;4957732;28;20016;-93
2023/05/08 09:42:28;;;;;;;;;;;;;;;;;;4959229;28;19926;-93
2023/05/08 09:44:54;;;;;;;;;;;;;;;;;;4958790;28;19922;-92
2023/05/08 09:47:20;;;;;;;;;;;;;;;;;;4957478;28;19945;-93
2023/05/08 09:49:46;;;;;;;;;;;;;;;;;;4958744;28;19925;-93
2023/05/08 09:52:12;;;;;;;;;;;;;;;;;;4958147;28;19922;-92
2023/05/08 09:54:38;;;;;;;;;;;;;;;;;;4958201;28;19922;-92
2023/05/08 09:57:04;;;;;;;;;;;;;;;;;;4957586;28;19930;-85
2023/05/08 09:59:30;;;;;;;;;;;;;;;;;;4953291;28;19933;-85
2023/05/08 10:01:56;;;;;;;;;;;;;;;;;;4969218;28;20400;-84
2023/05/08 10:04:22;;;;;;;;;;;;;;;;;;4951567;28;19944;-84
2023/05/08 10:06:48;;;;;;;;;;;;;;;;;;4944350;28;20025;-85
2023/05/08 10:09:13;;;;;;;;;;;;;;;;;;4954577;28;19921;-85
2023/05/08 10:11:39;;;;;;;;;;;;;;;;;;4951498;28;19934;-85
2023/05/08 10:14:05;;;;;;;;;;;;;;;;;;4955901;28;19957;-85
2023/05/08 10:16:31;;;;;;;;;;;;;;;;;;4954577;28;19934;-86
2023/05/08 10:18:57;;;;;;;;;;;;;;;;;;4951180;28;20399;-85
2023/05/08 10:21:23;;;;;;;;;;;;;;;;;;4954810;28;19930;-85
2023/05/08 10:23:49;;;;;;;;;;;;;;;;;;4955744;28;20391;-86
2023/05/08 10:26:15;;;;;;;;;;;;;;;;;;4963481;28;19922;-85
2023/05/08 10:28:41;;;;;;;;;;;;;;;;;;4966884;28;19922;-86
2023/05/08 10:31:07;;;;;;;;;;;;;;;;;;4963294;28;19972;-86
2023/05/08 10:33:32;;;;;;;;;;;;;;;;;;4957694;28;19936;-85
2023/05/08 10:35:58;;;;;;;;;;;;;;;;;;4951425;28;19926;-85
2023/05/08 10:38:24;;;;;;;;;;;;;;;;;;4949841;28;20013;-85
2023/05/08 10:40:52;;;;;;;;;;;;;;;;;;4951048;28;19922;-85
2023/05/08 10:43:18;;;;;;;;;;;;;;;;;;4968049;28;19922;-86
2023/05/08 10:45:44;;;;;;;;;;;;;;;;;;4945954;29;19995;-86
2023/05/08 10:48:09;;;;;;;;;;;;;;;;;;4949924;28;19926;-87
2023/05/08 10:50:35;;;;;;;;;;;;;;;;;;4957052;28;19959;-86
2023/05/08 10:53:02;;;;;;;;;;;;;;;;;;4954820;28;19930;-86
2023/05/08 10:55:28;;;;;;;;;;;;;;;;;;4951099;28;20051;-85
2023/05/08 10:57:54;;;;;;;;;;;;;;;;;;4966146;28;20402;-86
2023/05/08 11:00:20;;;;;;;;;;;;;;;;;;4955826;28;19942;-86
2023/05/08 11:02:46;;;;;;;;;;;;;;;;;;4949866;28;20399;-86
2023/05/08 11:05:11;;;;;;;;;;;;;;;;;;4947433;29;19933;-87
2023/05/08 11:07:37;;;;;;;;;;;;;;;;;;4967008;28;20446;-86
2023/05/08 11:10:03;;;;;;;;;;;;;;;;;;4940357;29;19969;-84
2023/05/08 11:12:30;;;;;;;;;;;;;;;;;;4954142;28;20073;-84
2023/05/08 11:14:56;;;;;;;;;;;;;;;;;;4959825;28;19926;-84
2023/05/08 11:17:21;;;;;;;;;;;;;;;;;;4960027;28;19972;-84
2023/05/08 11:19:47;;;;;;;;;;;;;;;;;;4950347;28;20321;-85
2023/05/08 11:22:13;;;;;;;;;;;;;;;;;;4950711;28;20020;-85
2023/05/08 11:24:39;;;;;;;;;;;;;;;;;;4952659;28;20373;-84
2023/05/08 11:27:05;;;;;;;;;;;;;;;;;;4968410;28;19926;-84
2023/05/08 11:29:31;;;;;;;;;;;;;;;;;;4956355;28;19957;-86
2023/05/08 11:31:57;;;;;;;;;;;;;;;;;;4958420;28;19929;-86
2023/05/08 11:34:23;;;;;;;;;;;;;;;;;;4955254;28;19965;-86
2023/05/08 11:36:49;;;;;;;;;;;;;;;;;;4957856;28;20013;-85
2023/05/08 11:39:15;;;;;;;;;;;;;;;;;;4966056;28;19928;-86
2023/05/08 11:41:41;;;;;;;;;;;;;;;;;;4946731;29;19922;-86
2023/05/08 11:44:08;;;;;;;;;;;;;;;;;;4949854;28;19929;-86
2023/05/08 11:46:34;;;;;;;;;;;;;;;;;;4965481;28;20033;-86
2023/05/08 11:49:00;;;;;;;;;;;;;;;;;;4948160;28;20370;-86
2023/05/08 11:51:26;;;;;;;;;;;;;;;;;;4948335;28;19949;-86
2023/05/08 11:53:52;;;;;;;;;;;;;;;;;;4942855;29;20376;-87
2023/05/08 11:56:18;;;;;;;;;;;;;;;;;;4961416;28;19989;-86
2023/05/08 11:58:44;;;;;;;;;;;;;;;;;;4947998;28;20395;-86
2023/05/08 12:01:10;;;;;;;;;;;;;;;;;;4944621;29;20388;-86
2023/05/08 12:03:35;;;;;;;;;;;;;;;;;;4965927;28;20394;-86
2023/05/08 12:06:01;;;;;;;;;;;;;;;;;;4948901;28;19973;-86
2023/05/08 12:08:27;;;;;;;;;;;;;;;;;;4963499;28;19977;-86
2023/05/08 12:10:53;;;;;;;;;;;;;;;;;;4950486;28;20014;-86
2023/05/08 12:13:19;;;;;;;;;;;;;;;;;;4947532;28;19927;-86
2023/05/08 12:15:45;;;;;;;;;;;;;;;;;;4948982;28;19926;-85
2023/05/08 12:18:11;;;;;;;;;;;;;;;;;;4946164;28;20005;-86
2023/05/08 12:20:37;;;;;;;;;;;;;;;;;;4946016;29;19969;-86
2023/05/08 12:23:03;;;;;;;;;;;;;;;;;;4949001;28;19923;-86
2023/05/08 12:25:29;;;;;;;;;;;;;;;;;;4965297;28;20375;-87
2023/05/08 12:27:55;;;;;;;;;;;;;;;;;;4945485;28;20001;-86
2023/05/08 12:30:21;;;;;;;;;;;;;;;;;;4947811;28;19922;-86
2023/05/08 12:32:47;;;;;;;;;;;;;;;;;;4946874;28;20065;-86
2023/05/08 12:35:13;;;;;;;;;;;;;;;;;;4948607;28;19953;-87
2023/05/08 12:37:38;;;;;;;;;;;;;;;;;;4945791;29;20367;-86
2023/05/08 12:40:05;;;;;;;;;;;;;;;;;;4945634;29;19923;-86
2023/05/08 12:42:31;;;;;;;;;;;;;;;;;;4948455;28;19930;-86
2023/05/08 12:44:56;;;;;;;;;;;;;;;;;;4946686;28;19929;-86
2023/05/08 12:47:22;;;;;;;;;;;;;;;;;;4951177;28;20406;-86
2023/05/08 12:49:49;;;;;;;;;;;;;;;;;;4948798;28;19922;-86
2023/05/08 12:52:15;;;;;;;;;;;;;;;;;;4965110;28;19925;-87
2023/05/08 12:54:41;;;;;;;;;;;;;;;;;;4948907;28;19922;-86
2023/05/08 12:57:07;;;;;;;;;;;;;;;;;;4961297;28;19949;-87
2023/05/08 12:59:32;;;;;;;;;;;;;;;;;;4945448;28;19923;-86
2023/05/08 13:01:58;;;;;;;;;;;;;;;;;;4945449;29;19922;-86
2023/05/08 13:04:24;;;;;;;;;;;;;;;;;;4947234;28;19933;-87
2023/05/08 13:06:50;;;;;;;;;;;;;;;;;;4963149;28;20024;-86
2023/05/08 13:09:16;;;;;;;;;;;;;;;;;;4946162;28;20351;-86
2023/05/08 13:11:42;;;;;;;;;;;;;;;;;;4947989;28;20017;-87
2023/05/08 13:14:08;;;;;;;;;;;;;;;;;;4945149;28;19978;-86
2023/05/08 13:16:34;;;;;;;;;;;;;;;;;;4948543;28;19956;-85
2023/05/08 13:19:00;;;;;;;;;;;;;;;;;;4944731;28;20397;-86
2023/05/08 13:21:26;;;;;;;;;;;;;;;;;;4948570;28;20005;-86
2023/05/08 13:23:52;;;;;;;;;;;;;;;;;;4964385;28;19922;-87
2023/05/08 13:26:18;;;;;;;;;;;;;;;;;;4948387;28;19966;-86
2023/05/08 13:28:44;;;;;;;;;;;;;;;;;;4963470;28;19972;-86
2023/05/08 13:31:10;;;;;;;;;;;;;;;;;;4948741;28;19929;-86
2023/05/08 13:33:37;;;;;;;;;;;;;;;;;;4961038;28;20335;-86
2023/05/08 13:36:02;;;;;;;;;;;;;;;;;;4956280;28;19957;-87
2023/05/08 13:38:28;;;;;;;;;;;;;;;;;;4948116;28;19922;-87
2023/05/08 13:40:54;;;;;;;;;;;;;;;;;;4945512;28;19929;-85
2023/05/08 13:43:20;;;;;;;;;;;;;;;;;;4942732;28;20062;-86
2023/05/08 13:45:46;;;;;;;;;;;;;;;;;;4946542;28;20017;-87
2023/05/08 13:48:12;;;;;;;;;;;;;;;;;;4960840;28;20379;-86
2023/05/08 13:50:38;;;;;;;;;;;;;;;;;;4944584;28;19926;-87
2023/05/08 13:53:04;;;;;;;;;;;;;;;;;;4960545;28;19922;-86
2023/05/08 13:55:30;;;;;;;;;;;;;;;;;;4948251;29;19981;-87
2023/05/08 13:57:57;;;;;;;;;;;;;;;;;;4947582;28;19926;-86
2023/05/08 14:00:23;;;;;;;;;;;;;;;;;;4961328;28;19996;-86
2023/05/08 14:02:49;;;;;;;;;;;;;;;;;;4946368;28;19925;-86
2023/05/08 14:05:15;;;;;;;;;;;;;;;;;;4946452;28;19922;-87
2023/05/08 14:07:41;;;;;;;;;;;;;;;;;;4964586;28;19929;-87
2023/05/08 14:10:07;;;;;;;;;;;;;;;;;;4944946;28;20082;-86
2023/05/08 14:12:36;;;;;;;;;;;;;;;;;;4948172;28;19926;-87
2023/05/08 14:15:02;;;;;;;;;;;;;;;;;;4951635;28;19922;-87
2023/05/08 14:17:28;;;;;;;;;;;;;;;;;;4945154;28;19933;-86
2023/05/08 14:19:53;;;;;;;;;;;;;;;;;;4960751;28;19923;-86
2023/05/08 14:22:19;;;;;;;;;;;;;;;;;;4947991;28;19922;-86
2023/05/08 14:24:46;;;;;;;;;;;;;;;;;;4952077;28;20024;-86
2023/05/08 14:27:11;;;;;;;;;;;;;;;;;;4944789;28;19930;-86
2023/05/08 14:29:37;;;;;;;;;;;;;;;;;;4961413;28;19926;-87
2023/05/08 14:32:03;;;;;;;;;;;;;;;;;;4943487;29;19993;-87
2023/05/08 14:34:29;;;;;;;;;;;;;;;;;;4942984;29;19922;-87
2023/05/08 14:36:55;;;;;;;;;;;;;;;;;;4947806;28;19927;-86
2023/05/08 14:39:21;;;;;;;;;;;;;;;;;;4963335;28;19923;-87
2023/05/08 14:41:47;;;;;;;;;;;;;;;;;;4957709;28;19922;-86
2023/05/08 14:44:13;;;;;;;;;;;;;;;;;;4961990;28;19981;-87
2023/05/08 14:46:39;;;;;;;;;;;;;;;;;;4944128;28;20264;-86
2023/05/08 14:49:05;;;;;;;;;;;;;;;;;;4944363;28;19922;-87
2023/05/08 14:51:31;;;;;;;;;;;;;;;;;;4947888;28;19949;-86
2023/05/08 14:53:57;;;;;;;;;;;;;;;;;;4960202;28;19922;-87
2023/05/08 14:56:23;;;;;;;;;;;;;;;;;;4962888;28;19984;-86
2023/05/08 14:58:49;;;;;;;;;;;;;;;;;;4941268;28;19926;-86
2023/05/08 15:01:15;;;;;;;;;;;;;;;;;;4945727;28;19976;-86
2023/05/08 15:03:41;;;;;;;;;;;;;;;;;;4947630;28;19922;-87
2023/05/08 15:06:07;;;;;;;;;;;;;;;;;;4943475;28;19923;-86
2023/05/08 15:08:33;;;;;;;;;;;;;;;;;;4946602;28;19922;-86
2023/05/08 15:10:59;;;;;;;;;;;;;;;;;;4954318;28;19922;-87
2023/05/08 15:13:25;;;;;;;;;;;;;;;;;;4956420;28;19926;-92
2023/05/08 15:15:50;;;;;;;;;;;;;;;;;;4959880;28;20395;-91
2023/05/08 15:18:16;;;;;;;;;;;;;;;;;;4976559;28;19973;-92
2023/05/08 15:20:42;;;;;;;;;;;;;;;;;;4961733;28;19930;-92
2023/05/08 15:23:08;;;;;;;;;;;;;;;;;;4973290;28;20010;-92
2023/05/08 15:25:34;;;;;;;;;;;;;;;;;;4963739;28;19923;-95
2023/05/08 15:28:00;;;;;;;;;;;;;;;;;;4964014;28;19957;-95
2023/05/08 15:32:57;;;;;;;;;;;;;;;;;;4978426;28;19922;-96
2023/05/08 15:35:23;;;;;;;;;;;;;;;;;;4952105;28;19926;-95
2023/05/08 15:37:49;;;;;;;;;;;;;;;;;;4954281;28;19925;-96
2023/05/08 15:40:15;;;;;;;;;;;;;;;;;;4982259;28;20016;-96
2023/05/08 15:42:40;;;;;;;;;;;;;;;;;;4953818;28;19965;-94
2023/05/08 15:45:06;;;;;;;;;;;;;;;;;;4952520;28;20005;-94
2023/05/08 15:47:32;;;;;;;;;;;;;;;;;;4957085;28;19922;-94
2023/05/08 15:49:58;;;;;;;;;;;;;;;;;;4957004;28;19957;-96
2023/05/08 15:52:24;;;;;;;;;;;;;;;;;;4955225;28;19962;-96
2023/05/08 15:54:50;;;;;;;;;;;;;;;;;;4980654;28;20009;-95
2023/05/08 15:57:16;;;;;;;;;;;;;;;;;;4954056;29;19926;-96
2023/05/08 15:59:42;;;;;;;;;;;;;;;;;;4961799;28;20008;-95
2023/05/08 16:02:08;;;;;;;;;;;;;;;;;;4961317;28;19922;-96
2023/05/08 16:04:34;;;;;;;;;;;;;;;;;;4958381;28;19929;-92
2023/05/08 16:06:59;;;;;;;;;;;;;;;;;;4955116;29;19930;-93
2023/05/08 16:09:25;;;;;;;;;;;;;;;;;;4946159;28;20000;-93
2023/05/08 16:11:51;;;;;;;;;;;;;;;;;;4950937;28;20001;-92
2023/05/08 16:14:18;;;;;;;;;;;;;;;;;;4946640;28;20345;-92
2023/05/08 16:16:44;;;;;;;;;;;;;;;;;;4946400;28;19973;-92
2023/05/08 16:19:10;;;;;;;;;;;;;;;;;;4946166;28;19977;-93
2023/05/08 16:21:36;;;;;;;;;;;;;;;;;;4948223;28;20354;-92
2023/05/08 16:24:02;;;;;;;;;;;;;;;;;;4949147;28;20004;-92
2023/05/08 16:26:28;;;;;;;;;;;;;;;;;;4949420;28;20368;-93
2023/05/08 16:28:54;;;;;;;;;;;;;;;;;;4950780;28;19929;-92
2023/05/08 16:31:20;;;;;;;;;;;;;;;;;;4946257;28;19933;-91
2023/05/08 16:33:46;;;;;;;;;;;;;;;;;;4962571;28;19923;-91
2023/05/08 16:36:12;;;;;;;;;;;;;;;;;;4948111;28;19941;-92
2023/05/08 16:38:38;;;;;;;;;;;;;;;;;;4888434;28;1776276;-92